Time;durP1;ratioP1;P1;durP2;ratioP2;P2;SDS_P1;SDS_P2;PMS_P1;PMS_P2;Temp;Humidity;BMP_temperature;BMP_pressure;BME280_temperature;BME280_humidity;BME280_pressure;Samples;Min_cycle;Max_cycle;Signal;HPM_P1;HPM_P2
2023/10/21 00:00:53;;;;;;;505.27;205.97;;;;;;;;;;4992493;28;20227;-51
2023/10/21 00:03:19;;;;;;;436.90;167.93;;;;;;;;;;4983115;28;20280;-51
2023/10/21 00:05:45;;;;;;;491.17;199.77;;;;;;;;;;4984047;28;20663;-51
2023/10/21 00:08:11;;;;;;;442.63;175.43;;;;;;;;;;4979705;28;20221;-51
2023/10/21 00:10:37;;;;;;;458.87;180.90;;;;;;;;;;4986881;28;20228;-51
2023/10/21 00:13:03;;;;;;;429.37;166.20;;;;;;;;;;4997185;28;20218;-51
2023/10/21 00:15:29;;;;;;;419.27;160.30;;;;;;;;;;4988067;28;20586;-51
2023/10/21 00:17:55;;;;;;;507.93;200.87;;;;;;;;;;4994292;28;20197;-51
2023/10/21 00:20:21;;;;;;;454.93;176.13;;;;;;;;;;4987907;28;21324;-51
2023/10/21 00:22:47;;;;;;;479.17;199.37;;;;;;;;;;4988756;28;20264;-51
2023/10/21 00:25:13;;;;;;;428.07;165.33;;;;;;;;;;4992031;28;20216;-51
2023/10/21 00:27:39;;;;;;;495.27;197.37;;;;;;;;;;4987839;28;20605;-51
2023/10/21 00:30:07;;;;;;;502.70;206.07;;;;;;;;;;4979538;28;20216;-51
2023/10/21 00:32:33;;;;;;;488.13;192.77;;;;;;;;;;4997680;28;20176;-51
2023/10/21 00:34:59;;;;;;;418.67;157.27;;;;;;;;;;4991910;28;20216;-51
2023/10/21 00:37:25;;;;;;;403.43;152.50;;;;;;;;;;4990895;28;20234;-51
2023/10/21 00:39:51;;;;;;;467.83;194.13;;;;;;;;;;4991021;28;20361;-51
2023/10/21 00:42:18;;;;;;;490.33;204.63;;;;;;;;;;4976448;28;20204;-51
2023/10/21 00:44:44;;;;;;;480.23;204.03;;;;;;;;;;4977131;28;20600;-51
2023/10/21 00:47:10;;;;;;;497.30;201.60;;;;;;;;;;4984988;28;20635;-51
2023/10/21 00:49:36;;;;;;;467.30;182.00;;;;;;;;;;4993252;28;20252;-51
2023/10/21 00:52:04;;;;;;;477.13;184.27;;;;;;;;;;4990469;28;20221;-51
2023/10/21 00:54:30;;;;;;;460.50;185.77;;;;;;;;;;4989843;28;20588;-51
2023/10/21 00:56:56;;;;;;;509.60;213.63;;;;;;;;;;4982530;28;20204;-51
2023/10/21 00:59:23;;;;;;;413.67;158.93;;;;;;;;;;4983993;28;20222;-51
2023/10/21 01:01:49;;;;;;;507.13;212.77;;;;;;;;;;4991928;28;20768;-51
2023/10/21 01:04:16;;;;;;;428.23;167.37;;;;;;;;;;4993103;28;23565;-51
2023/10/21 01:06:43;;;;;;;497.17;206.83;;;;;;;;;;4983172;28;20225;-51
2023/10/21 01:09:10;;;;;;;472.47;187.93;;;;;;;;;;4993802;28;20209;-51
2023/10/21 01:11:37;;;;;;;476.50;191.43;;;;;;;;;;4984805;28;20529;-51
2023/10/21 01:14:03;;;;;;;516.07;204.50;;;;;;;;;;4977187;28;20220;-51
2023/10/21 01:16:29;;;;;;;426.90;164.50;;;;;;;;;;4982188;28;20289;-51
2023/10/21 01:18:55;;;;;;;449.67;181.67;;;;;;;;;;4980734;28;20217;-51
2023/10/21 01:21:21;;;;;;;423.60;168.37;;;;;;;;;;4987935;28;20811;-51
2023/10/21 01:23:47;;;;;;;575.10;244.50;;;;;;;;;;4991463;28;20862;-51
2023/10/21 01:26:13;;;;;;;435.93;165.03;;;;;;;;;;4984189;28;20236;-51
2023/10/21 01:28:40;;;;;;;470.60;187.10;;;;;;;;;;4984080;28;20671;-51
2023/10/21 01:31:06;;;;;;;465.00;181.90;;;;;;;;;;4987097;28;20335;-51
2023/10/21 01:33:32;;;;;;;424.37;166.27;;;;;;;;;;4980942;28;20221;-51
2023/10/21 01:35:58;;;;;;;447.67;177.63;;;;;;;;;;4992080;28;20224;-51
2023/10/21 01:38:24;;;;;;;466.77;180.57;;;;;;;;;;4976881;28;20212;-51
2023/10/21 01:40:50;;;;;;;496.00;203.70;;;;;;;;;;4985526;28;20229;-51
2023/10/21 01:43:16;;;;;;;466.00;180.40;;;;;;;;;;4985397;28;21086;-51
2023/10/21 01:45:42;;;;;;;478.47;192.87;;;;;;;;;;4982433;28;20212;-51
2023/10/21 01:48:08;;;;;;;451.27;175.00;;;;;;;;;;4974978;28;20221;-51
2023/10/21 01:50:34;;;;;;;441.60;169.87;;;;;;;;;;4983289;28;20209;-51
2023/10/21 01:53:00;;;;;;;431.37;165.10;;;;;;;;;;4984006;28;20220;-51
2023/10/21 01:55:26;;;;;;;396.67;152.40;;;;;;;;;;4993352;28;20458;-51
2023/10/21 01:57:52;;;;;;;463.27;188.90;;;;;;;;;;4979466;28;23039;-51
2023/10/21 02:00:19;;;;;;;437.83;179.03;;;;;;;;;;4985920;28;20739;-51
2023/10/21 02:02:49;;;;;;;509.53;209.80;;;;;;;;;;4984822;28;20238;-51
2023/10/21 02:05:15;;;;;;;454.93;176.30;;;;;;;;;;4992546;28;20704;-51
2023/10/21 02:07:41;;;;;;;477.43;186.53;;;;;;;;;;4984250;28;20231;-51
2023/10/21 02:10:07;;;;;;;440.37;171.97;;;;;;;;;;4949161;28;1077368;-51
2023/10/21 02:12:33;;;;;;;659.77;308.03;;;;;;;;;;4972296;28;20213;-51
2023/10/21 02:14:59;;;;;;;472.00;193.27;;;;;;;;;;4986682;28;20288;-51
2023/10/21 02:17:25;;;;;;;467.50;193.20;;;;;;;;;;4978894;28;20469;-51
2023/10/21 02:19:56;;;;;;;467.23;189.90;;;;;;;;;;4992031;28;20220;-51
2023/10/21 02:22:23;;;;;;;454.03;182.07;;;;;;;;;;4988926;28;20686;-51
2023/10/21 02:24:49;;;;;;;480.03;195.63;;;;;;;;;;4976372;28;20217;-51
2023/10/21 02:27:15;;;;;;;509.20;216.17;;;;;;;;;;4993084;28;20203;-51
2023/10/21 02:29:41;;;;;;;446.87;172.17;;;;;;;;;;4985988;28;20205;-51
2023/10/21 02:32:07;;;;;;;440.53;173.53;;;;;;;;;;4989735;28;20287;-51
2023/10/21 02:34:33;;;;;;;577.07;251.97;;;;;;;;;;4978029;28;20719;-51
2023/10/21 02:36:59;;;;;;;478.17;196.13;;;;;;;;;;4989173;28;20227;-51
2023/10/21 02:39:25;;;;;;;454.83;180.03;;;;;;;;;;4985807;28;20216;-51
2023/10/21 02:41:51;;;;;;;497.77;204.10;;;;;;;;;;4985756;28;20282;-51
2023/10/21 02:44:17;;;;;;;548.63;233.60;;;;;;;;;;4976411;28;20543;-51
2023/10/21 02:46:43;;;;;;;484.20;193.93;;;;;;;;;;4980890;28;20216;-51
2023/10/21 02:49:09;;;;;;;464.97;181.57;;;;;;;;;;4985432;28;20646;-51
2023/10/21 02:51:35;;;;;;;451.40;177.83;;;;;;;;;;4989100;28;20215;-51
2023/10/21 02:54:01;;;;;;;496.93;201.03;;;;;;;;;;4981789;28;20594;-51
2023/10/21 02:56:27;;;;;;;488.53;199.00;;;;;;;;;;4991720;28;20738;-51
2023/10/21 02:58:53;;;;;;;477.60;191.63;;;;;;;;;;4986712;28;20221;-51
2023/10/21 03:01:20;;;;;;;468.70;186.93;;;;;;;;;;4983504;28;20232;-51
2023/10/21 03:03:47;;;;;;;485.77;197.80;;;;;;;;;;4984291;28;20232;-51
2023/10/21 03:06:13;;;;;;;483.50;195.00;;;;;;;;;;4987598;28;20598;-51
2023/10/21 03:08:39;;;;;;;548.90;237.40;;;;;;;;;;4984679;28;20191;-51
2023/10/21 03:11:06;;;;;;;486.60;197.97;;;;;;;;;;4994837;28;20339;-51
2023/10/21 03:13:36;;;;;;;453.13;178.53;;;;;;;;;;4985924;28;20367;-51
2023/10/21 03:16:09;;;;;;;451.70;177.00;;;;;;;;;;4992811;28;20692;-51
2023/10/21 03:18:35;;;;;;;460.90;183.40;;;;;;;;;;4983935;28;20216;-51
2023/10/21 03:21:02;;;;;;;502.00;204.43;;;;;;;;;;4986574;28;20176;-51
2023/10/21 03:23:28;;;;;;;495.23;202.47;;;;;;;;;;4980479;28;20616;-51
2023/10/21 03:25:58;;;;;;;467.63;185.87;;;;;;;;;;4995561;28;20322;-51
2023/10/21 03:28:26;;;;;;;423.17;167.60;;;;;;;;;;4986180;28;20223;-51
2023/10/21 03:30:55;;;;;;;467.90;192.83;;;;;;;;;;4986207;28;20618;-51
2023/10/21 03:33:22;;;;;;;476.97;193.23;;;;;;;;;;4993664;28;20270;-51
2023/10/21 03:35:52;;;;;;;505.37;199.57;;;;;;;;;;4989835;28;20253;-51
2023/10/21 03:38:18;;;;;;;448.90;175.87;;;;;;;;;;4993679;28;20243;-51
2023/10/21 03:40:44;;;;;;;454.67;174.63;;;;;;;;;;4986310;28;20330;-50
2023/10/21 03:43:10;;;;;;;452.57;181.07;;;;;;;;;;4986255;28;20408;-51
2023/10/21 03:45:37;;;;;;;423.17;168.07;;;;;;;;;;4984899;28;20262;-51
2023/10/21 03:48:03;;;;;;;447.53;181.23;;;;;;;;;;4990288;28;20527;-51
2023/10/21 03:50:29;;;;;;;453.67;184.83;;;;;;;;;;4981075;28;20215;-51
2023/10/21 03:52:55;;;;;;;465.93;186.37;;;;;;;;;;4986853;28;22040;-51
2023/10/21 03:55:22;;;;;;;446.97;174.73;;;;;;;;;;4990501;28;20231;-51
2023/10/21 03:57:49;;;;;;;475.90;190.00;;;;;;;;;;4983381;28;20220;-51
2023/10/21 04:00:16;;;;;;;478.27;194.10;;;;;;;;;;4989233;28;20844;-51
2023/10/21 04:02:42;;;;;;;452.93;176.37;;;;;;;;;;4995063;28;20621;-51
2023/10/21 04:05:08;;;;;;;464.53;182.77;;;;;;;;;;4992007;28;20217;-51
2023/10/21 04:07:35;;;;;;;495.23;198.27;;;;;;;;;;4987569;28;21145;-51
2023/10/21 04:10:01;;;;;;;469.30;192.00;;;;;;;;;;4990904;28;20278;-51
2023/10/21 04:12:27;;;;;;;629.83;281.37;;;;;;;;;;4987000;28;20220;-51
2023/10/21 04:14:53;;;;;;;491.83;195.73;;;;;;;;;;4975596;28;20188;-51
2023/10/21 04:17:19;;;;;;;516.73;208.87;;;;;;;;;;4989525;28;20228;-51
2023/10/21 04:19:45;;;;;;;471.00;181.50;;;;;;;;;;4988151;28;20221;-51
2023/10/21 04:22:11;;;;;;;485.10;193.57;;;;;;;;;;4991727;28;20220;-51
2023/10/21 04:24:37;;;;;;;468.50;190.77;;;;;;;;;;4989398;28;20216;-51
2023/10/21 04:27:03;;;;;;;495.53;205.20;;;;;;;;;;4986626;28;20188;-51
2023/10/21 04:29:29;;;;;;;422.77;163.13;;;;;;;;;;4983118;28;20909;-51
2023/10/21 04:31:55;;;;;;;489.27;191.23;;;;;;;;;;4986861;28;21999;-51
2023/10/21 04:34:21;;;;;;;492.50;194.60;;;;;;;;;;5011123;22;20238;-54
2023/10/21 04:36:47;;;;;;;474.03;181.67;;;;;;;;;;5021119;28;20251;-54
2023/10/21 04:39:16;;;;;;;465.27;185.63;;;;;;;;;;5031624;28;20200;-54
2023/10/21 04:41:42;;;;;;;432.10;168.33;;;;;;;;;;5029679;28;20464;-54
2023/10/21 04:44:08;;;;;;;467.57;190.67;;;;;;;;;;5016627;28;20215;-54
2023/10/21 04:46:34;;;;;;;444.10;172.17;;;;;;;;;;5035387;28;20229;-54
2023/10/21 04:48:59;;;;;;;475.07;187.83;;;;;;;;;;5033884;28;20223;-54
2023/10/21 04:51:25;;;;;;;494.43;197.60;;;;;;;;;;5031876;28;20234;-54
2023/10/21 04:53:51;;;;;;;490.93;195.53;;;;;;;;;;5034659;28;20183;-54
2023/10/21 04:56:17;;;;;;;441.33;171.90;;;;;;;;;;5024057;28;20223;-54
2023/10/21 04:58:43;;;;;;;451.20;176.50;;;;;;;;;;5027438;28;20218;-54
2023/10/21 05:01:10;;;;;;;430.73;166.87;;;;;;;;;;5029339;28;20326;-54
2023/10/21 05:03:37;;;;;;;437.83;168.97;;;;;;;;;;5032628;28;20223;-54
2023/10/21 05:06:04;;;;;;;453.67;182.03;;;;;;;;;;5022411;28;20665;-54
2023/10/21 05:08:30;;;;;;;431.53;164.83;;;;;;;;;;5035364;28;20270;-54
2023/10/21 05:10:56;;;;;;;482.07;193.43;;;;;;;;;;5026802;28;20242;-54
2023/10/21 05:13:23;;;;;;;433.40;166.90;;;;;;;;;;5026670;28;20590;-54
2023/10/21 05:15:50;;;;;;;473.43;187.83;;;;;;;;;;5029070;28;20352;-54
2023/10/21 05:18:16;;;;;;;456.43;180.13;;;;;;;;;;5030906;28;20753;-54
2023/10/21 05:20:42;;;;;;;483.23;196.87;;;;;;;;;;5031346;28;20199;-54
2023/10/21 05:23:08;;;;;;;502.17;210.73;;;;;;;;;;5025273;28;20216;-54
2023/10/21 05:25:34;;;;;;;449.97;173.63;;;;;;;;;;5021634;28;20218;-54
2023/10/21 05:28:00;;;;;;;484.03;188.73;;;;;;;;;;5029502;28;21983;-54
2023/10/21 05:30:26;;;;;;;458.13;173.77;;;;;;;;;;5026514;28;20236;-54
2023/10/21 05:32:52;;;;;;;458.40;175.03;;;;;;;;;;5028918;28;20882;-54
2023/10/21 05:35:18;;;;;;;479.77;195.57;;;;;;;;;;5025368;28;20249;-54
2023/10/21 05:37:44;;;;;;;430.93;171.60;;;;;;;;;;5031333;28;20215;-54
2023/10/21 05:40:10;;;;;;;501.97;199.00;;;;;;;;;;5028823;28;20223;-54
2023/10/21 05:42:36;;;;;;;497.70;204.47;;;;;;;;;;5028166;28;22389;-54
2023/10/21 05:45:02;;;;;;;586.70;257.43;;;;;;;;;;5021949;28;20211;-54
2023/10/21 05:47:28;;;;;;;525.27;217.90;;;;;;;;;;5028696;28;20191;-54
2023/10/21 05:49:55;;;;;;;443.87;172.70;;;;;;;;;;5029648;28;20223;-54
2023/10/21 05:52:21;;;;;;;467.83;190.10;;;;;;;;;;5024142;28;22427;-54
2023/10/21 05:54:47;;;;;;;532.07;217.53;;;;;;;;;;5032038;28;20243;-54
2023/10/21 05:57:13;;;;;;;474.77;190.67;;;;;;;;;;5025731;28;20258;-54
2023/10/21 05:59:39;;;;;;;493.13;195.17;;;;;;;;;;5007325;28;20223;-54
2023/10/21 06:02:05;;;;;;;487.10;202.30;;;;;;;;;;5032764;28;20253;-54
2023/10/21 06:04:31;;;;;;;476.40;194.07;;;;;;;;;;5032000;28;20661;-55
2023/10/21 06:06:57;;;;;;;475.67;190.80;;;;;;;;;;5022640;28;20224;-54
2023/10/21 06:09:23;;;;;;;468.37;190.50;;;;;;;;;;5033547;28;20307;-54
2023/10/21 06:11:53;;;;;;;475.17;187.63;;;;;;;;;;5020580;28;20191;-54
2023/10/21 06:14:19;;;;;;;430.60;168.27;;;;;;;;;;5022478;28;20401;-54
2023/10/21 06:16:45;;;;;;;439.67;173.77;;;;;;;;;;5021670;28;20507;-54
2023/10/21 06:19:11;;;;;;;479.63;197.40;;;;;;;;;;5026108;28;20497;-54
2023/10/21 06:21:37;;;;;;;429.40;167.23;;;;;;;;;;5022030;28;20226;-54
2023/10/21 06:24:04;;;;;;;494.13;211.40;;;;;;;;;;5019876;28;20665;-55
2023/10/21 06:26:31;;;;;;;658.60;306.03;;;;;;;;;;4985616;28;20290;-54
2023/10/21 06:28:57;;;;;;;546.17;229.67;;;;;;;;;;5010581;28;20285;-54
2023/10/21 06:31:23;;;;;;;415.53;160.10;;;;;;;;;;5020990;28;20355;-54
2023/10/21 06:33:49;;;;;;;446.93;180.23;;;;;;;;;;5026044;28;21542;-54
2023/10/21 06:36:15;;;;;;;532.67;223.03;;;;;;;;;;5015605;28;20246;-54
2023/10/21 06:38:41;;;;;;;427.90;163.13;;;;;;;;;;5026875;28;20190;-54
2023/10/21 06:41:07;;;;;;;583.10;248.13;;;;;;;;;;5015124;28;20211;-55
2023/10/21 06:43:33;;;;;;;485.57;194.20;;;;;;;;;;5022699;28;20353;-55
2023/10/21 06:45:59;;;;;;;467.37;187.90;;;;;;;;;;5030494;28;20219;-54
2023/10/21 06:48:26;;;;;;;428.63;161.43;;;;;;;;;;5027456;28;20246;-54
2023/10/21 06:50:53;;;;;;;460.53;181.63;;;;;;;;;;5037282;28;20297;-55
2023/10/21 06:53:19;;;;;;;451.80;176.60;;;;;;;;;;5017336;28;20211;-55
2023/10/21 06:55:46;;;;;;;493.97;200.77;;;;;;;;;;5021299;28;20218;-54
2023/10/21 06:58:12;;;;;;;455.50;180.70;;;;;;;;;;5020632;28;20594;-54
2023/10/21 07:00:38;;;;;;;485.93;194.47;;;;;;;;;;5006092;28;20227;-55
2023/10/21 07:03:05;;;;;;;543.23;230.70;;;;;;;;;;5008380;28;20543;-55
2023/10/21 07:05:31;;;;;;;452.73;173.90;;;;;;;;;;5016013;28;20179;-55
2023/10/21 07:07:57;;;;;;;416.43;161.67;;;;;;;;;;5027916;28;20223;-54
2023/10/21 07:10:23;;;;;;;433.47;172.70;;;;;;;;;;5020519;28;20428;-53
2023/10/21 07:12:51;;;;;;;472.00;190.67;;;;;;;;;;5017639;28;20858;-53
2023/10/21 07:15:17;;;;;;;508.27;212.30;;;;;;;;;;5022575;28;20199;-53
2023/10/21 07:17:43;;;;;;;519.57;221.67;;;;;;;;;;5021262;28;20208;-53
2023/10/21 07:20:11;;;;;;;471.40;188.53;;;;;;;;;;5018468;28;20759;-53
2023/10/21 07:22:37;;;;;;;482.17;198.63;;;;;;;;;;5034063;28;20211;-53
2023/10/21 07:25:03;;;;;;;445.30;177.13;;;;;;;;;;5032696;28;29941;-53
2023/10/21 07:27:29;;;;;;;501.77;206.50;;;;;;;;;;5037071;28;20207;-53
2023/10/21 07:29:55;;;;;;;429.47;164.47;;;;;;;;;;5039869;28;20264;-55
2023/10/21 07:32:23;;;;;;;477.00;189.80;;;;;;;;;;5031483;28;20230;-55
2023/10/21 07:34:49;;;;;;;477.03;190.90;;;;;;;;;;5036810;28;20249;-55
2023/10/21 07:37:14;;;;;;;496.47;199.07;;;;;;;;;;5048986;28;20220;-55
2023/10/21 07:39:40;;;;;;;461.83;189.83;;;;;;;;;;5041334;28;20219;-55
2023/10/21 07:42:06;;;;;;;526.90;218.90;;;;;;;;;;5033565;28;20706;-55
2023/10/21 07:44:33;;;;;;;470.13;193.30;;;;;;;;;;5032357;28;20322;-55
2023/10/21 07:46:58;;;;;;;451.60;178.53;;;;;;;;;;5037698;28;20317;-55
2023/10/21 07:49:24;;;;;;;461.00;183.50;;;;;;;;;;5026092;28;20212;-55
2023/10/21 07:51:51;;;;;;;894.70;443.53;;;;;;;;;;5004947;28;20377;-55
2023/10/21 07:54:17;;;;;;;560.50;242.67;;;;;;;;;;4997888;28;21643;-55
2023/10/21 07:56:46;;;;;;;438.87;177.87;;;;;;;;;;5027753;28;20226;-55
2023/10/21 07:59:13;;;;;;;429.00;169.20;;;;;;;;;;5038802;28;20409;-55
2023/10/21 08:01:39;;;;;;;459.37;184.80;;;;;;;;;;5036111;28;20208;-55
2023/10/21 08:04:05;;;;;;;422.10;166.40;;;;;;;;;;5030822;28;20212;-55
2023/10/21 08:06:31;;;;;;;477.83;193.17;;;;;;;;;;5024359;28;21068;-55
2023/10/21 08:08:57;;;;;;;486.77;206.43;;;;;;;;;;5026550;28;20386;-55
2023/10/21 08:11:23;;;;;;;596.03;230.90;;;;;;;;;;5015955;28;20440;-55
2023/10/21 08:13:50;;;;;;;447.30;165.17;;;;;;;;;;5017099;28;20361;-55
2023/10/21 08:16:16;;;;;;;505.90;195.27;;;;;;;;;;4998775;28;20208;-55
2023/10/21 08:18:43;;;;;;;492.03;190.67;;;;;;;;;;5005467;28;20215;-55
2023/10/21 08:21:09;;;;;;;507.23;211.13;;;;;;;;;;5025446;28;20449;-55
2023/10/21 08:23:35;;;;;;;516.17;217.73;;;;;;;;;;5010832;28;20183;-55
2023/10/21 08:26:01;;;;;;;455.50;182.93;;;;;;;;;;5003344;28;20264;-55
2023/10/21 08:28:27;;;;;;;436.53;168.43;;;;;;;;;;5014730;28;20211;-55
2023/10/21 08:30:53;;;;;;;451.63;178.70;;;;;;;;;;5010924;28;20211;-55
2023/10/21 08:33:19;;;;;;;491.47;203.73;;;;;;;;;;5009374;28;20188;-55
2023/10/21 08:35:46;;;;;;;471.87;191.87;;;;;;;;;;5025899;28;20211;-55
2023/10/21 08:38:13;;;;;;;447.83;177.43;;;;;;;;;;5020050;28;21135;-55
2023/10/21 08:40:41;;;;;;;436.80;174.27;;;;;;;;;;5031110;28;20277;-56
2023/10/21 08:43:08;;;;;;;490.07;202.17;;;;;;;;;;5014177;28;20200;-55
2023/10/21 08:45:35;;;;;;;461.77;188.40;;;;;;;;;;5009830;28;22154;-55
2023/10/21 08:48:03;;;;;;;464.33;187.37;;;;;;;;;;5010592;28;20201;-56
2023/10/21 08:50:30;;;;;;;479.50;194.67;;;;;;;;;;5006092;28;20203;-55
2023/10/21 08:52:58;;;;;;;477.37;192.80;;;;;;;;;;5013429;28;20773;-55
2023/10/21 08:55:25;;;;;;;410.07;159.80;;;;;;;;;;5026479;28;20207;-55
2023/10/21 08:57:51;;;;;;;382.93;161.23;;;;;;;;;;5016548;28;20640;-55
2023/10/21 09:00:18;;;;;;;385.37;162.20;;;;;;;;;;5030282;28;20735;-55
2023/10/21 09:02:44;;;;;;;339.93;139.60;;;;;;;;;;5037682;28;20182;-55
2023/10/21 09:05:13;;;;;;;365.40;152.77;;;;;;;;;;5025129;28;20207;-55
2023/10/21 09:07:45;;;;;;;376.60;155.93;;;;;;;;;;5031322;28;20219;-55
2023/10/21 09:10:12;;;;;;;386.87;163.07;;;;;;;;;;5031813;28;20706;-55
2023/10/21 09:12:38;;;;;;;344.33;144.30;;;;;;;;;;5027865;28;20223;-55
2023/10/21 09:15:05;;;;;;;375.53;157.70;;;;;;;;;;5027821;28;20685;-55
2023/10/21 09:17:35;;;;;;;347.87;144.30;;;;;;;;;;5031816;28;20208;-55
2023/10/21 09:20:01;;;;;;;355.53;148.90;;;;;;;;;;5036716;28;20248;-55
2023/10/21 09:22:27;;;;;;;400.23;170.83;;;;;;;;;;5032492;28;20322;-55
2023/10/21 09:25:10;;;;;;;346.00;145.53;;;;;;;;;;5033206;28;20344;-55
2023/10/21 09:27:38;;;;;;;379.83;159.37;;;;;;;;;;5028397;28;21357;-55
2023/10/21 09:30:04;;;;;;;360.17;153.70;;;;;;;;;;5030522;28;20298;-55
2023/10/21 09:32:30;;;;;;;348.20;145.80;;;;;;;;;;5029462;28;20180;-55
2023/10/21 09:35:15;;;;;;;358.37;154.03;;;;;;;;;;5027120;28;20637;-55
2023/10/21 09:37:41;;;;;;;362.83;155.27;;;;;;;;;;5028975;28;20215;-55
2023/10/21 09:40:09;;;;;;;377.67;159.10;;;;;;;;;;5031001;28;20342;-55
2023/10/21 09:42:41;;;;;;;412.07;177.67;;;;;;;;;;5033132;28;20231;-55
2023/10/21 09:45:07;;;;;;;411.57;179.70;;;;;;;;;;5030396;28;20378;-55
2023/10/21 09:47:37;;;;;;;372.17;159.13;;;;;;;;;;5033269;28;20196;-55
2023/10/21 09:50:05;;;;;;;363.93;155.50;;;;;;;;;;5023412;28;36697;-55
2023/10/21 09:52:36;;;;;;;365.97;153.53;;;;;;;;;;5030882;28;20297;-55
2023/10/21 09:55:07;;;;;;;351.97;151.80;;;;;;;;;;5029432;28;20216;-56
2023/10/21 09:57:33;;;;;;;443.23;195.60;;;;;;;;;;5029415;28;20276;-55
2023/10/21 10:00:00;;;;;;;368.57;156.73;;;;;;;;;;5036592;28;20211;-55
2023/10/21 10:02:26;;;;;;;346.83;146.27;;;;;;;;;;5037160;28;20219;-55
2023/10/21 10:04:53;;;;;;;376.03;159.37;;;;;;;;;;5026033;28;20220;-55
2023/10/21 10:07:20;;;;;;;678.70;328.03;;;;;;;;;;5017635;28;20212;-55
2023/10/21 10:10:25;;;;;;;440.60;182.53;;;;;;;;;;5023566;28;20617;-55
2023/10/21 10:13:06;;;;;;;659.87;307.37;;;;;;;;;;4989815;28;20805;-55
2023/10/21 10:15:42;;;;;;;463.17;196.67;;;;;;;;;;5018887;28;20216;-55
2023/10/21 10:18:09;;;;;;;447.90;184.03;;;;;;;;;;5018326;28;20426;-55
2023/10/21 10:20:35;;;;;;;477.83;207.20;;;;;;;;;;5008974;28;20212;-55
2023/10/21 10:23:02;;;;;;;452.53;190.47;;;;;;;;;;5021813;28;20242;-55
2023/10/21 10:25:31;;;;;;;551.77;247.30;;;;;;;;;;5008659;28;20214;-55
2023/10/21 10:28:04;;;;;;;515.83;227.63;;;;;;;;;;5008444;28;20438;-55
2023/10/21 10:30:30;;;;;;;496.47;215.97;;;;;;;;;;5012620;28;20305;-56
2023/10/21 10:32:57;;;;;;;501.27;220.70;;;;;;;;;;5012028;28;20576;-56
2023/10/21 10:35:30;;;;;;;505.70;221.67;;;;;;;;;;5020712;28;20227;-57
2023/10/21 10:37:56;;;;;;;506.80;219.10;;;;;;;;;;5033098;28;20212;-57
2023/10/21 10:40:32;;;;;;;411.53;174.23;;;;;;;;;;5041655;28;20361;-57
2023/10/21 10:42:58;;;;;;;444.10;186.13;;;;;;;;;;5039106;28;20210;-57
2023/10/21 10:45:25;;;;;;;506.80;217.70;;;;;;;;;;5035168;28;20227;-57
2023/10/21 10:47:59;;;;;;;494.67;216.80;;;;;;;;;;5036798;28;20239;-57
2023/10/21 10:50:25;;;;;;;469.77;198.30;;;;;;;;;;5024700;28;20231;-57
2023/10/21 10:52:54;;;;;;;507.80;220.43;;;;;;;;;;5016690;28;20219;-57
2023/10/21 10:55:21;;;;;;;507.63;228.37;;;;;;;;;;5019455;28;20223;-57
2023/10/21 10:57:48;;;;;;;443.20;190.00;;;;;;;;;;5017096;28;20226;-57
2023/10/21 11:00:20;;;;;;;524.03;234.40;;;;;;;;;;5017011;28;20216;-57
2023/10/21 11:02:46;;;;;;;555.60;263.77;;;;;;;;;;5015769;28;20670;-57
2023/10/21 11:05:17;;;;;;;525.30;240.57;;;;;;;;;;5023542;28;20254;-57
2023/10/21 11:07:43;;;;;;;507.20;222.93;;;;;;;;;;5031141;28;20686;-57
2023/10/21 11:10:09;;;;;;;451.97;198.40;;;;;;;;;;5020499;28;20212;-56
2023/10/21 11:12:36;;;;;;;616.33;297.23;;;;;;;;;;5019224;28;20724;-57
2023/10/21 11:15:06;;;;;;;494.57;224.70;;;;;;;;;;5021783;28;21020;-57
2023/10/21 11:17:33;;;;;;;506.67;235.17;;;;;;;;;;5009518;28;20208;-57
2023/10/21 11:19:59;;;;;;;670.83;331.77;;;;;;;;;;5002238;28;27827;-57
2023/10/21 11:22:26;;;;;;;545.30;241.17;;;;;;;;;;4988521;28;20820;-57
2023/10/21 11:24:52;;;;;;;440.37;193.07;;;;;;;;;;5028998;28;20272;-57
2023/10/21 11:27:18;;;;;;;482.37;214.13;;;;;;;;;;5027576;28;20194;-57
2023/10/21 11:29:44;;;;;;;500.67;224.60;;;;;;;;;;5031355;28;20254;-57
2023/10/21 11:32:11;;;;;;;507.47;232.27;;;;;;;;;;5032778;28;20239;-57
2023/10/21 11:34:37;;;;;;;477.87;217.20;;;;;;;;;;5033600;28;20624;-57
2023/10/21 11:37:04;;;;;;;468.63;212.37;;;;;;;;;;5031783;28;20219;-57
2023/10/21 11:39:33;;;;;;;463.83;210.97;;;;;;;;;;5030793;28;20211;-57
2023/10/21 11:41:59;;;;;;;462.57;216.63;;;;;;;;;;5034019;28;20190;-57
2023/10/21 11:44:26;;;;;;;489.03;223.93;;;;;;;;;;5029665;28;20212;-57
2023/10/21 11:47:04;;;;;;;478.63;220.90;;;;;;;;;;5038789;28;20226;-57
2023/10/21 11:49:34;;;;;;;451.67;209.13;;;;;;;;;;5034211;28;20215;-56
2023/10/21 11:52:00;;;;;;;406.20;185.80;;;;;;;;;;5038399;28;20292;-56
2023/10/21 12:05:35;;;;;;;485.33;227.67;;;;;;;;;;5008863;28;20218;-56
2023/10/21 12:16:16;;;;;;;481.63;230.90;;;;;;;;;;5023205;28;20230;-56
2023/10/21 12:24:44;;;;;;;558.77;279.27;;;;;;;;;;4997933;28;20225;-57
2023/10/21 12:40:35;;;;;;;512.60;250.93;;;;;;;;;;5016528;28;20646;-57
2023/10/21 12:45:47;;;;;;;474.80;231.70;;;;;;;;;;5013811;28;20258;-56
2023/10/21 12:48:17;;;;;;;497.67;234.57;;;;;;;;;;5020026;28;20249;-57
2023/10/21 12:50:43;;;;;;;493.00;248.60;;;;;;;;;;5015858;28;20206;-57
2023/10/21 12:53:10;;;;;;;477.37;234.63;;;;;;;;;;5025638;28;20636;-56
2023/10/21 12:55:37;;;;;;;530.10;260.77;;;;;;;;;;5012044;28;20219;-57
2023/10/21 12:58:03;;;;;;;501.07;251.50;;;;;;;;;;5006454;28;20271;-57
2023/10/21 13:00:29;;;;;;;529.10;267.83;;;;;;;;;;5013700;28;20571;-56
2023/10/21 13:02:56;;;;;;;477.33;235.30;;;;;;;;;;5034716;28;20257;-57
2023/10/21 13:05:22;;;;;;;525.60;263.93;;;;;;;;;;5027375;28;20226;-57
2023/10/21 13:07:48;;;;;;;463.83;225.17;;;;;;;;;;5040916;28;20717;-57
2023/10/21 13:10:14;;;;;;;465.30;222.27;;;;;;;;;;5043903;28;20203;-57
2023/10/21 13:12:40;;;;;;;517.20;264.30;;;;;;;;;;5031708;28;20545;-57
2023/10/21 13:15:13;;;;;;;498.97;242.73;;;;;;;;;;5041636;28;20498;-57
2023/10/21 13:17:42;;;;;;;499.77;246.20;;;;;;;;;;5034793;28;20209;-57
2023/10/21 13:20:17;;;;;;;469.63;222.87;;;;;;;;;;5037070;28;20622;-57
2023/10/21 13:22:46;;;;;;;458.07;220.00;;;;;;;;;;5039261;28;20696;-57
2023/10/21 13:25:17;;;;;;;452.30;214.50;;;;;;;;;;5043502;28;20208;-57
2023/10/21 13:27:44;;;;;;;462.73;224.23;;;;;;;;;;5032913;28;28255;-57
2023/10/21 13:30:10;;;;;;;582.13;296.00;;;;;;;;;;5004832;28;20206;-57
2023/10/21 13:32:40;;;;;;;483.07;235.07;;;;;;;;;;5016746;28;20226;-57
2023/10/21 13:35:09;;;;;;;530.43;260.33;;;;;;;;;;5012843;28;21445;-57
2023/10/21 13:37:36;;;;;;;480.27;233.87;;;;;;;;;;5020167;28;20261;-57
2023/10/21 13:40:03;;;;;;;463.37;228.80;;;;;;;;;;5009956;28;20249;-57
2023/10/21 13:42:29;;;;;;;659.13;310.47;;;;;;;;;;4991189;28;20578;-57
2023/10/21 13:44:54;;;;;;;499.17;245.80;;;;;;;;;;5013913;28;20463;-57
2023/10/21 13:47:20;;;;;;;498.80;255.33;;;;;;;;;;5006976;28;20250;-57
2023/10/21 13:49:46;;;;;;;566.83;298.27;;;;;;;;;;5012435;28;20310;-57
2023/10/21 13:52:12;;;;;;;547.47;280.60;;;;;;;;;;5003361;28;20212;-57
2023/10/21 13:54:38;;;;;;;536.07;276.77;;;;;;;;;;5006133;28;20512;-57
2023/10/21 13:57:05;;;;;;;515.67;269.40;;;;;;;;;;5000270;28;20199;-57
2023/10/21 13:59:31;;;;;;;529.23;283.47;;;;;;;;;;5010214;28;20579;-57
2023/10/21 14:01:57;;;;;;;485.23;265.93;;;;;;;;;;5007703;28;21033;-57
2023/10/21 14:04:25;;;;;;;543.87;316.03;;;;;;;;;;5009493;28;20234;-57
2023/10/21 14:06:52;;;;;;;521.83;307.97;;;;;;;;;;5007808;28;20311;-57
2023/10/21 14:09:24;;;;;;;520.37;314.97;;;;;;;;;;5012686;28;20234;-57
2023/10/21 14:11:51;;;;;;;524.97;335.53;;;;;;;;;;5006730;28;31793;-57
2023/10/21 14:14:17;;;;;;;508.80;324.53;;;;;;;;;;5012615;28;21449;-57
2023/10/21 14:16:43;;;;;;;532.30;358.00;;;;;;;;;;5009457;28;20499;-57
2023/10/21 14:19:09;;;;;;;526.00;364.73;;;;;;;;;;5016817;28;20278;-58
2023/10/21 14:21:35;;;;;;;555.57;382.27;;;;;;;;;;5012861;28;20230;-57
2023/10/21 14:24:02;;;;;;;571.47;405.07;;;;;;;;;;5010747;28;20191;-57
2023/10/21 14:26:28;;;;;;;626.60;433.03;;;;;;;;;;5009634;28;20184;-58
2023/10/21 14:28:56;;;;;;;541.67;382.57;;;;;;;;;;5015501;28;20683;-57
2023/10/21 14:31:31;;;;;;;569.57;372.67;;;;;;;;;;5012987;28;20491;-57